createdAt,value
2022-11-29T10:51:17.826Z,2.10
2022-11-29T10:53:46.884Z,2.73
2022-11-29T10:56:22.492Z,2.13
2022-11-29T10:59:02.970Z,2.27
2022-11-29T11:01:32.607Z,2.97
2022-11-29T11:04:04.272Z,2.73
2022-11-29T11:06:46.909Z,2.63
2022-11-29T11:09:20.646Z,3.13
2022-11-29T11:11:52.904Z,2.90
2022-11-29T11:14:24.612Z,3.53
2022-11-29T11:16:54.100Z,4.60
2022-11-29T11:19:28.720Z,2.43
2022-11-29T11:22:00.081Z,2.10
2022-11-29T11:24:30.028Z,2.07
2022-11-29T11:26:58.128Z,2.10
2022-11-29T11:29:29.949Z,2.00
2022-11-29T11:32:00.183Z,2.10
2022-11-29T11:34:31.683Z,3.33
2022-11-29T11:37:26.131Z,2.03
2022-11-29T11:39:57.151Z,1.65
2022-11-29T11:42:38.371Z,2.40
2022-11-29T11:45:24.333Z,2.30
2022-11-29T11:47:54.929Z,1.60
2022-11-29T11:50:32.660Z,2.17
2022-11-29T11:53:06.196Z,1.60
2022-11-29T11:55:38.855Z,1.90
2022-11-29T11:58:19.371Z,1.90
2022-11-29T12:01:06.013Z,1.87
2022-11-29T12:03:40.762Z,1.73
2022-11-29T12:06:31.510Z,1.70
2022-11-29T12:09:04.703Z,2.27
2022-11-29T12:11:40.357Z,1.93
2022-11-29T12:14:09.347Z,1.90
2022-11-29T12:16:40.357Z,2.07
2022-11-29T12:19:17.173Z,2.20
2022-11-29T12:21:48.519Z,2.40
2022-11-29T12:24:27.504Z,3.10
2022-11-29T12:26:59.739Z,3.63
2022-11-29T12:29:32.915Z,3.03
2022-11-29T12:32:12.710Z,5.10
2022-11-29T12:34:56.678Z,3.23
2022-11-29T12:37:33.574Z,1.60
2022-11-29T12:40:08.359Z,3.08
2022-11-29T12:42:47.216Z,6.70
2022-11-29T12:45:34.447Z,2.43
2022-11-29T12:48:13.820Z,3.00
2022-11-29T12:50:52.591Z,2.90
2022-11-29T12:53:47.466Z,2.60
2022-11-29T12:56:24.047Z,2.60
2022-11-29T12:59:01.409Z,2.17
2022-11-29T13:01:39.976Z,2.70
2022-11-29T13:04:17.127Z,2.20
2022-11-29T13:06:51.306Z,2.83
2022-11-29T13:09:55.973Z,2.17
2022-11-29T13:12:29.538Z,2.47
2022-11-29T13:15:04.593Z,2.47
2022-11-29T13:17:40.447Z,2.50
2022-11-29T13:20:24.068Z,2.40
2022-11-29T13:23:00.250Z,2.10
2022-11-29T13:25:33.507Z,3.00
2022-11-29T13:28:07.031Z,3.73
2022-11-29T13:30:40.293Z,2.37
2022-11-29T13:33:18.510Z,2.53
2022-11-29T13:35:54.822Z,2.93
2022-11-29T13:38:30.398Z,2.83
2022-11-29T13:41:05.615Z,2.57
2022-11-29T13:43:43.818Z,2.25
2022-11-29T13:46:21.139Z,2.97
2022-11-29T13:48:51.201Z,3.40
2022-11-29T13:51:28.771Z,4.00
2022-11-29T13:53:58.590Z,3.60
2022-11-29T13:56:42.912Z,3.93
2022-11-29T13:59:20.760Z,3.80
2022-11-29T14:01:51.468Z,3.37
2022-11-29T14:04:35.821Z,4.20
2022-11-29T14:07:18.498Z,3.97
2022-11-29T14:09:52.223Z,3.80
2022-11-29T14:12:38.390Z,4.13
2022-11-29T14:15:25.021Z,4.63
2022-11-29T14:17:55.630Z,4.40
2022-11-29T14:20:46.818Z,5.63
2022-11-29T14:23:17.148Z,4.97
2022-11-29T14:26:37.922Z,5.10
2022-11-29T14:29:44.339Z,6.00
2022-11-29T14:32:24.834Z,5.40
2022-11-29T14:34:59.247Z,6.05
2022-11-29T14:37:41.591Z,6.47
2022-11-29T14:40:24.847Z,7.03
2022-11-29T14:42:54.011Z,7.50
2022-11-29T14:45:25.269Z,7.75
2022-11-29T14:47:54.821Z,7.28
2022-11-29T14:50:35.748Z,7.60
2022-11-29T14:53:05.023Z,7.13
2022-11-29T14:55:36.498Z,8.00
2022-11-29T14:58:26.690Z,8.07
2022-11-29T15:01:10.632Z,9.23
2022-11-29T15:03:47.987Z,7.93
2022-11-29T15:06:26.014Z,8.63
2022-11-29T15:09:02.837Z,8.35
2022-11-29T15:11:41.979Z,8.70
2022-11-29T15:14:21.396Z,8.45
2022-11-29T15:17:02.701Z,9.20
2022-11-29T15:19:50.681Z,8.53
2022-11-29T15:22:20.985Z,8.57
2022-11-29T15:24:54.757Z,9.10
2022-11-29T15:27:23.791Z,8.23
2022-11-29T15:29:52.763Z,8.53
2022-11-29T15:32:26.293Z,9.17
2022-11-29T15:34:57.236Z,9.43
2022-11-29T15:37:39.930Z,9.10
2022-11-29T15:40:14.042Z,8.90
2022-11-29T15:42:45.273Z,9.13
2022-11-29T15:45:28.932Z,10.00
2022-11-29T15:48:12.569Z,10.37
2022-11-29T15:50:47.262Z,10.60
2022-11-29T15:53:20.582Z,11.27
2022-11-29T15:55:51.638Z,9.70
2022-11-29T15:58:20.388Z,11.50
2022-11-29T16:00:50.816Z,10.80
2022-11-29T16:03:25.372Z,10.55
2022-11-29T16:06:02.696Z,13.53
2022-11-29T16:08:35.303Z,11.73
2022-11-29T16:11:03.499Z,12.33
2022-11-29T16:13:35.902Z,13.70
2022-11-29T16:16:08.636Z,14.30
2022-11-29T16:18:37.838Z,14.53
2022-11-29T16:21:08.308Z,14.70
2022-11-29T16:23:37.516Z,16.20
2022-11-29T16:26:15.094Z,14.07
2022-11-29T16:28:45.091Z,15.17
2022-11-29T16:31:18.206Z,13.80
2022-11-29T16:33:48.977Z,14.20
2022-11-29T16:36:22.266Z,13.00
2022-11-29T16:38:52.559Z,12.83
2022-11-29T16:41:26.345Z,14.00
2022-11-29T16:43:57.488Z,14.07
2022-11-29T16:46:37.515Z,14.57
2022-11-29T16:49:36.706Z,16.67
2022-11-29T16:52:24.943Z,17.10
2022-11-29T16:54:53.410Z,16.50
2022-11-29T16:57:22.222Z,17.10
2022-11-29T16:59:50.609Z,17.30
2022-11-29T17:02:19.257Z,16.67
2022-11-29T17:04:47.901Z,16.52
2022-11-29T17:07:21.722Z,17.47
2022-11-29T17:09:49.860Z,16.67
2022-11-29T17:12:19.212Z,17.23
2022-11-29T17:14:47.404Z,17.90
2022-11-29T17:17:17.258Z,18.57
2022-11-29T17:19:45.640Z,17.87
2022-11-29T17:22:13.957Z,17.37
2022-11-29T17:24:47.975Z,18.33
2022-11-29T17:27:16.744Z,20.40
2022-11-29T17:29:44.886Z,18.07
2022-11-29T17:32:13.043Z,18.07
2022-11-29T17:34:41.042Z,15.03
2022-11-29T17:37:09.400Z,18.37
2022-11-29T17:39:37.477Z,16.17
2022-11-29T17:42:07.151Z,15.17
2022-11-29T17:44:35.908Z,18.17
2022-11-29T17:47:03.936Z,17.15
2022-11-29T17:49:32.058Z,16.60
2022-11-29T17:52:00.202Z,16.60
2022-11-29T17:54:28.305Z,15.17
2022-11-29T17:56:56.703Z,16.08
2022-11-29T17:59:26.076Z,17.90
2022-11-29T18:01:54.253Z,17.75
2022-11-29T18:04:22.550Z,18.20
2022-11-29T18:06:50.953Z,18.27
2022-11-29T18:09:20.172Z,18.53
2022-11-29T18:11:50.449Z,18.63
2022-11-29T18:14:20.474Z,16.70
2022-11-29T18:16:50.398Z,18.90
2022-11-29T18:19:20.250Z,16.92
2022-11-29T18:21:48.861Z,16.63
2022-11-29T18:24:17.408Z,17.90
2022-11-29T18:26:46.153Z,17.20
2022-11-29T18:29:14.429Z,17.83
2022-11-29T18:31:43.896Z,16.97
2022-11-29T18:34:15.095Z,16.87
2022-11-29T18:36:44.567Z,17.73
2022-11-29T18:39:15.104Z,18.67
2022-11-29T18:41:44.420Z,18.27
2022-11-29T18:44:14.171Z,16.77
2022-11-29T18:46:43.974Z,20.30
2022-11-29T18:49:15.527Z,18.70
2022-11-29T18:51:45.615Z,18.67
2022-11-29T18:54:14.596Z,18.57
2022-11-29T18:56:43.558Z,18.97
2022-11-29T18:59:14.628Z,15.43
2022-11-29T19:01:43.670Z,17.65
2022-11-29T19:04:17.329Z,16.33
2022-11-29T19:06:45.658Z,17.50
2022-11-29T19:09:15.612Z,17.40
2022-11-29T19:11:43.746Z,16.93
2022-11-29T19:14:13.497Z,17.85
2022-11-29T19:16:43.175Z,16.80
2022-11-29T19:19:11.565Z,16.90
2022-11-29T19:21:41.594Z,17.90
2022-11-29T19:24:15.121Z,16.23
2022-11-29T19:26:45.469Z,16.40
2022-11-29T19:29:14.141Z,16.70
2022-11-29T19:31:42.817Z,16.40
2022-11-29T19:34:11.102Z,17.05
2022-11-29T19:36:43.741Z,17.60
2022-11-29T19:39:13.864Z,17.87
2022-11-29T19:41:44.172Z,18.57
2022-11-29T19:44:12.890Z,16.15
2022-11-29T19:46:42.422Z,18.27
2022-11-29T19:49:11.195Z,16.33
2022-11-29T19:51:40.892Z,17.70
2022-11-29T19:54:10.560Z,18.10
2022-11-29T19:56:39.442Z,18.87
2022-11-29T19:59:08.586Z,18.13
2022-11-29T20:01:41.409Z,18.87
2022-11-29T20:04:11.728Z,16.97
2022-11-29T20:06:41.687Z,17.57
2022-11-29T20:09:10.049Z,18.27
2022-11-29T20:11:38.039Z,17.00
2022-11-29T20:14:07.848Z,18.20
2022-11-29T20:16:38.295Z,16.30
2022-11-29T20:19:10.819Z,18.90
2022-11-29T20:21:44.128Z,16.27
2022-11-29T20:24:14.473Z,16.73
2022-11-29T20:26:44.894Z,14.47
2022-11-29T20:29:14.119Z,17.70
2022-11-29T20:31:49.419Z,17.23
2022-11-29T20:34:18.010Z,17.83
2022-11-29T20:37:14.866Z,17.20
2022-11-29T20:39:50.686Z,17.17
2022-11-29T20:42:36.379Z,19.63
2022-11-29T20:45:08.070Z,16.67
2022-11-29T20:47:45.841Z,16.77
2022-11-29T20:50:22.972Z,17.23
2022-11-29T20:53:02.069Z,16.00
2022-11-29T20:55:30.094Z,16.60
2022-11-29T20:57:58.029Z,18.87
2022-11-29T21:00:26.231Z,16.13
2022-11-29T21:02:54.146Z,14.17
2022-11-29T21:05:22.198Z,15.73
2022-11-29T21:07:50.187Z,15.43
2022-11-29T21:10:20.185Z,16.83
2022-11-29T21:12:48.554Z,16.17
2022-11-29T21:15:17.434Z,15.83
2022-11-29T21:17:46.265Z,15.70
2022-11-29T21:20:19.585Z,18.17
2022-11-29T21:22:55.173Z,16.23
2022-11-29T21:25:33.141Z,18.97
2022-11-29T21:28:02.151Z,18.17
2022-11-29T21:30:30.482Z,16.17
2022-11-29T21:32:58.887Z,16.57
2022-11-29T21:35:27.340Z,15.87
2022-11-29T21:37:58.182Z,15.70
2022-11-29T21:40:27.676Z,17.20
2022-11-29T21:42:55.624Z,15.03
2022-11-29T21:45:23.673Z,17.07
2022-11-29T21:47:51.592Z,14.95
2022-11-29T21:50:19.472Z,16.75
2022-11-29T21:52:47.549Z,14.47
2022-11-29T21:55:15.651Z,16.80
2022-11-29T21:57:45.058Z,16.67
2022-11-29T22:00:14.125Z,17.43
2022-11-29T22:02:42.287Z,16.00
2022-11-29T22:05:10.569Z,16.87
2022-11-29T22:07:38.499Z,16.73
2022-11-29T22:10:13.151Z,17.67
2022-11-29T22:12:51.231Z,15.40
2022-11-29T22:15:24.800Z,18.00
2022-11-29T22:17:53.494Z,16.87
2022-11-29T22:20:21.715Z,17.70
2022-11-29T22:22:50.106Z,15.37
2022-11-29T22:25:18.198Z,16.93
2022-11-29T22:27:46.592Z,18.27
2022-11-29T22:30:14.889Z,16.07
2022-11-29T22:32:44.318Z,17.80
2022-11-29T22:35:12.366Z,17.23
2022-11-29T22:37:40.410Z,17.57
2022-11-29T22:40:09.178Z,17.67
2022-11-29T22:42:37.061Z,15.67
2022-11-29T22:45:05.655Z,17.87
2022-11-29T22:47:33.573Z,17.07
2022-11-29T22:50:02.948Z,19.30
2022-11-29T22:52:31.013Z,18.67
2022-11-29T22:55:04.435Z,19.20
2022-11-29T22:57:33.269Z,21.97
2022-11-29T23:00:01.214Z,19.57
2022-11-29T23:02:29.935Z,19.27
2022-11-29T23:04:57.831Z,19.47
2022-11-29T23:07:27.365Z,19.60
2022-11-29T23:09:56.096Z,20.97
2022-11-29T23:12:23.996Z,18.57
2022-11-29T23:14:56.389Z,20.87
2022-11-29T23:17:24.733Z,19.30
2022-11-29T23:19:52.950Z,19.83
2022-11-29T23:22:20.871Z,19.70
2022-11-29T23:24:50.279Z,17.80
2022-11-29T23:27:18.153Z,18.50
2022-11-29T23:29:46.118Z,19.17
2022-11-29T23:32:14.037Z,18.80
2022-11-29T23:34:42.220Z,19.50
2022-11-29T23:37:10.106Z,17.27
